This is the latest recevied weather packets stored in our database for station/object DO7ZT-13. If no packets are shown the sender has not sent any weather packets the latest 10 day(s).
| Time | Temp. | Humidity | Pressure | Rain* | Wind** | Luminosity | Snow |
|---|---|---|---|---|---|---|---|
| 1777701312 | 16.11° C | 44% | 1024.5 hPa | 0 mm | 0.89 m/s, 135° | - | - |
| 1777701024 | 16.11° C | 44% | 1024.5 hPa | 0 mm | 0.89 m/s, 139° | - | - |
| 1777700712 | 16.11° C | 45% | 1024.3 hPa | 0 mm | 0.89 m/s, 138° | - | - |
| 1777700425 | 16.11° C | 48% | 1024.3 hPa | 0 mm | 0.89 m/s, 153° | - | - |
| 1777700112 | 16.11° C | 47% | 1024.3 hPa | 0 mm | 0.89 m/s, 129° | - | - |
| 1777699824 | 15° C | 50% | 1024.4 hPa | 0 mm | 0.45 m/s, 129° | - | - |
| 1777699512 | 15° C | 52% | 1024.4 hPa | 0 mm | 0 m/s | - | - |
| 1777699224 | 15° C | 51% | 1024.4 hPa | 0 mm | 0.89 m/s, 120° | - | - |
| 1777698912 | 13.89° C | 52% | 1024.4 hPa | 0 mm | 0.45 m/s, 126° | - | - |
| 1777698624 | 13.89° C | 51% | 1024.4 hPa | 0 mm | 0.45 m/s, 102° | - | - |
| 1777698312 | 13.89° C | 50% | 1024.4 hPa | 0 mm | 0.45 m/s, 96° | - | - |
| 1777698024 | 13.89° C | 50% | 1024.3 hPa | 0 mm | 0.89 m/s, 138° | - | - |
| 1777697712 | 12.78° C | 51% | 1024.3 hPa | 0 mm | 0 m/s | - | - |
| 1777697424 | 12.78° C | 54% | 1024.3 hPa | 0 mm | 0 m/s | - | - |
| 1777697112 | 12.78° C | 53% | 1024.2 hPa | 0 mm | 0.45 m/s, 138° | - | - |
| 1777696824 | 12.22° C | 56% | 1024.2 hPa | 0 mm | 0 m/s | - | - |
| 1777696224 | 10° C | 63% | 1024.1 hPa | 0 mm | 0.89 m/s, 132° | - | - |
| 1777695912 | 8.89° C | 68% | 1024.1 hPa | 0 mm | 0.45 m/s, 155° | - | - |
| 1777695624 | 10° C | 66% | 1024.1 hPa | 0 mm | 0.45 m/s, 162° | - | - |
| 1777695312 | 10° C | 59% | 1024.3 hPa | 0 mm | 0.89 m/s, 139° | - | - |
| 1777695037 | 8.89° C | 61% | 1024.3 hPa | 0 mm | 0.89 m/s, 132° | - | - |
| 1777694724 | 7.78° C | 65% | 1024.3 hPa | 0 mm | 0.89 m/s, 108° | - | - |
| 1777694413 | 7.78° C | 68% | 1024.4 hPa | 0 mm | 0.45 m/s, 132° | - | - |
| 1777694124 | 7.78° C | 70% | 1024.4 hPa | 0 mm | 0 m/s | - | - |
| 1777693812 | 7.22° C | 71% | 1024.4 hPa | 0 mm | 0 m/s | - | - |
* Rain latest hour (hover to see other rain measurements)
** Current wind speed in m/s (hover to see current wind gust speed)